sensor_id;sensor_type;location;lat;lon;timestamp;pressure;altitude;pressure_sealevel;temperature;humidity
71735;BME280;59577;52.122;5.406;2023-04-15T00:02:16;100949.78;;;7.44;68.81
71735;BME280;59577;52.122;5.406;2023-04-15T00:04:45;100951.69;;;7.43;69.08
71735;BME280;59577;52.122;5.406;2023-04-15T00:07:12;100954.38;;;7.43;68.70
71735;BME280;59577;52.122;5.406;2023-04-15T00:09:40;100952.16;;;7.45;68.61
71735;BME280;59577;52.122;5.406;2023-04-15T00:12:07;100959.56;;;7.48;68.94
71735;BME280;59577;52.122;5.406;2023-04-15T00:14:34;100958.00;;;7.47;68.82
71735;BME280;59577;52.122;5.406;2023-04-15T00:17:03;100965.75;;;7.49;68.30
71735;BME280;59577;52.122;5.406;2023-04-15T00:19:30;100960.34;;;7.49;68.29
71735;BME280;59577;52.122;5.406;2023-04-15T00:21:58;100961.16;;;7.49;68.35
71735;BME280;59577;52.122;5.406;2023-04-15T00:24:26;100953.09;;;7.49;68.37
71735;BME280;59577;52.122;5.406;2023-04-15T00:26:59;100958.59;;;7.53;68.68
71735;BME280;59577;52.122;5.406;2023-04-15T00:29:25;100954.47;;;7.56;68.83
71735;BME280;59577;52.122;5.406;2023-04-15T00:31:52;100961.31;;;7.53;69.19
71735;BME280;59577;52.122;5.406;2023-04-15T00:34:18;100958.47;;;7.49;68.97
71735;BME280;59577;52.122;5.406;2023-04-15T00:36:45;100954.19;;;7.48;69.17
71735;BME280;59577;52.122;5.406;2023-04-15T00:39:12;100960.34;;;7.49;69.33
71735;BME280;59577;52.122;5.406;2023-04-15T00:41:38;100953.41;;;7.48;70.22
71735;BME280;59577;52.122;5.406;2023-04-15T00:44:05;100961.34;;;7.44;70.40
71735;BME280;59577;52.122;5.406;2023-04-15T00:46:35;100960.75;;;7.39;71.02
71735;BME280;59577;52.122;5.406;2023-04-15T00:49:04;100963.63;;;7.33;71.30
71735;BME280;59577;52.122;5.406;2023-04-15T00:51:32;100959.09;;;7.25;71.98
71735;BME280;59577;52.122;5.406;2023-04-15T00:54:02;100962.44;;;7.22;72.02
71735;BME280;59577;52.122;5.406;2023-04-15T00:56:29;100964.53;;;7.17;72.15
71735;BME280;59577;52.122;5.406;2023-04-15T00:58:57;100965.97;;;7.14;72.84
71735;BME280;59577;52.122;5.406;2023-04-15T01:01:25;100964.22;;;7.09;73.13
71735;BME280;59577;52.122;5.406;2023-04-15T01:03:52;100965.84;;;7.02;72.99
71735;BME280;59577;52.122;5.406;2023-04-15T01:06:19;100970.66;;;6.96;73.53
71735;BME280;59577;52.122;5.406;2023-04-15T01:08:46;100968.13;;;6.91;73.68
71735;BME280;59577;52.122;5.406;2023-04-15T01:11:12;100965.28;;;6.87;73.68
71735;BME280;59577;52.122;5.406;2023-04-15T01:13:39;100965.94;;;6.84;73.63
71735;BME280;59577;52.122;5.406;2023-04-15T01:16:07;100968.50;;;6.81;73.88
71735;BME280;59577;52.122;5.406;2023-04-15T01:18:40;100969.91;;;6.78;74.16
71735;BME280;59577;52.122;5.406;2023-04-15T01:21:06;100968.34;;;6.77;74.23
71735;BME280;59577;52.122;5.406;2023-04-15T01:23:35;100964.69;;;6.73;74.25
71735;BME280;59577;52.122;5.406;2023-04-15T01:26:05;100962.00;;;6.73;74.19
71735;BME280;59577;52.122;5.406;2023-04-15T01:28:33;100965.38;;;6.70;74.57
71735;BME280;59577;52.122;5.406;2023-04-15T01:31:10;100963.00;;;6.68;75.26
71735;BME280;59577;52.122;5.406;2023-04-15T01:33:38;100962.19;;;6.68;75.28
71735;BME280;59577;52.122;5.406;2023-04-15T01:36:06;100962.03;;;6.64;75.42
71735;BME280;59577;52.122;5.406;2023-04-15T01:38:37;100963.50;;;6.62;75.68
71735;BME280;59577;52.122;5.406;2023-04-15T01:41:04;100963.66;;;6.56;75.83
71735;BME280;59577;52.122;5.406;2023-04-15T01:43:42;100962.25;;;6.50;76.26
71735;BME280;59577;52.122;5.406;2023-04-15T01:46:08;100965.09;;;6.45;76.21
71735;BME280;59577;52.122;5.406;2023-04-15T01:48:35;100969.69;;;6.45;76.11
71735;BME280;59577;52.122;5.406;2023-04-15T01:51:01;100962.72;;;6.44;76.33
71735;BME280;59577;52.122;5.406;2023-04-15T01:53:28;100964.47;;;6.39;76.34
71735;BME280;59577;52.122;5.406;2023-04-15T01:55:55;100967.03;;;6.36;76.56
71735;BME280;59577;52.122;5.406;2023-04-15T01:58:22;100968.13;;;6.35;76.51
71735;BME280;59577;52.122;5.406;2023-04-15T02:00:48;100964.50;;;6.31;76.65
71735;BME280;59577;52.122;5.406;2023-04-15T02:03:15;100966.72;;;6.29;76.70
71735;BME280;59577;52.122;5.406;2023-04-15T02:05:42;100973.50;;;6.26;76.49
71735;BME280;59577;52.122;5.406;2023-04-15T02:08:09;100968.78;;;6.23;76.33
71735;BME280;59577;52.122;5.406;2023-04-15T02:10:35;100973.53;;;6.17;76.77
71735;BME280;59577;52.122;5.406;2023-04-15T02:13:02;100971.97;;;6.16;77.06
71735;BME280;59577;52.122;5.406;2023-04-15T02:15:28;100971.97;;;6.16;76.90
71735;BME280;59577;52.122;5.406;2023-04-15T02:17:55;100968.81;;;6.14;76.90
71735;BME280;59577;52.122;5.406;2023-04-15T02:20:22;100980.19;;;6.11;77.03
71735;BME280;59577;52.122;5.406;2023-04-15T02:22:49;100976.53;;;6.07;77.15
71735;BME280;59577;52.122;5.406;2023-04-15T02:25:15;100981.44;;;6.05;77.23
71735;BME280;59577;52.122;5.406;2023-04-15T02:27:42;100986.81;;;6.05;77.43
71735;BME280;59577;52.122;5.406;2023-04-15T02:30:11;100988.72;;;6.05;77.39
71735;BME280;59577;52.122;5.406;2023-04-15T02:32:39;100989.50;;;6.05;77.28
71735;BME280;59577;52.122;5.406;2023-04-15T02:35:07;100993.31;;;6.04;77.72
71735;BME280;59577;52.122;5.406;2023-04-15T02:37:35;100990.13;;;6.02;77.59
71735;BME280;59577;52.122;5.406;2023-04-15T02:40:09;100999.31;;;6.01;77.63
71735;BME280;59577;52.122;5.406;2023-04-15T02:42:39;100999.94;;;5.98;77.92
71735;BME280;59577;52.122;5.406;2023-04-15T02:45:06;101000.53;;;5.95;77.84
71735;BME280;59577;52.122;5.406;2023-04-15T02:47:34;101008.44;;;5.91;77.83
71735;BME280;59577;52.122;5.406;2023-04-15T02:50:02;101006.38;;;5.88;78.08
71735;BME280;59577;52.122;5.406;2023-04-15T02:52:29;101008.59;;;5.86;77.80
71735;BME280;59577;52.122;5.406;2023-04-15T02:54:56;101005.75;;;5.82;77.94
71735;BME280;59577;52.122;5.406;2023-04-15T02:57:26;101019.81;;;5.79;78.24
71735;BME280;59577;52.122;5.406;2023-04-15T02:59:54;101020.75;;;5.75;78.93
71735;BME280;59577;52.122;5.406;2023-04-15T03:02:20;101021.84;;;5.74;79.09
71735;BME280;59577;52.122;5.406;2023-04-15T03:04:47;101016.63;;;5.69;78.80
71735;BME280;59577;52.122;5.406;2023-04-15T03:07:14;101019.94;;;5.65;79.31
71735;BME280;59577;52.122;5.406;2023-04-15T03:09:41;101014.41;;;5.62;79.29
71735;BME280;59577;52.122;5.406;2023-04-15T03:12:07;101014.72;;;5.60;79.31
71735;BME280;59577;52.122;5.406;2023-04-15T03:14:34;101026.09;;;5.57;79.23
71735;BME280;59577;52.122;5.406;2023-04-15T03:17:00;101019.75;;;5.53;79.49
71735;BME280;59577;52.122;5.406;2023-04-15T03:19:27;101024.66;;;5.51;79.89
71735;BME280;59577;52.122;5.406;2023-04-15T03:21:53;101029.88;;;5.47;80.39
71735;BME280;59577;52.122;5.406;2023-04-15T03:24:30;101032.69;;;5.42;80.37
71735;BME280;59577;52.122;5.406;2023-04-15T03:27:06;101033.31;;;5.39;80.35
71735;BME280;59577;52.122;5.406;2023-04-15T03:29:33;101037.88;;;5.39;79.94
71735;BME280;59577;52.122;5.406;2023-04-15T03:31:59;101031.88;;;5.33;79.74
71735;BME280;59577;52.122;5.406;2023-04-15T03:34:26;101031.56;;;5.35;80.08
71735;BME280;59577;52.122;5.406;2023-04-15T03:36:53;101033.91;;;5.36;80.09
71735;BME280;59577;52.122;5.406;2023-04-15T03:39:19;101032.03;;;5.37;80.25
71735;BME280;59577;52.122;5.406;2023-04-15T03:41:46;101045.16;;;5.38;80.34
71735;BME280;59577;52.122;5.406;2023-04-15T03:44:13;101041.50;;;5.34;80.89
71735;BME280;59577;52.122;5.406;2023-04-15T03:46:39;101040.72;;;5.34;80.60
71735;BME280;59577;52.122;5.406;2023-04-15T03:49:06;101047.00;;;5.29;80.17
71735;BME280;59577;52.122;5.406;2023-04-15T03:51:33;101048.25;;;5.23;80.30
71735;BME280;59577;52.122;5.406;2023-04-15T03:54:06;101057.72;;;5.20;80.84
71735;BME280;59577;52.122;5.406;2023-04-15T03:56:36;101054.53;;;5.18;80.72
71735;BME280;59577;52.122;5.406;2023-04-15T03:59:02;101065.59;;;5.17;81.03
71735;BME280;59577;52.122;5.406;2023-04-15T04:01:29;101062.41;;;5.15;80.99
71735;BME280;59577;52.122;5.406;2023-04-15T04:03:55;101060.03;;;5.13;80.94
71735;BME280;59577;52.122;5.406;2023-04-15T04:06:22;101065.53;;;5.08;81.28
71735;BME280;59577;52.122;5.406;2023-04-15T04:08:49;101071.53;;;5.05;81.03
71735;BME280;59577;52.122;5.406;2023-04-15T04:11:15;101075.31;;;5.04;81.54
71735;BME280;59577;52.122;5.406;2023-04-15T04:13:42;101083.97;;;5.01;81.66
71735;BME280;59577;52.122;5.406;2023-04-15T04:16:08;101082.69;;;4.98;81.98
71735;BME280;59577;52.122;5.406;2023-04-15T04:18:35;101079.53;;;4.96;81.91
71735;BME280;59577;52.122;5.406;2023-04-15T04:21:02;101082.84;;;4.93;82.01
71735;BME280;59577;52.122;5.406;2023-04-15T04:23:28;101091.50;;;4.90;82.15
71735;BME280;59577;52.122;5.406;2023-04-15T04:25:55;101087.53;;;4.87;81.72
71735;BME280;59577;52.122;5.406;2023-04-15T04:28:22;101099.50;;;4.81;82.03
71735;BME280;59577;52.122;5.406;2023-04-15T04:30:48;101091.56;;;4.76;82.16
71735;BME280;59577;52.122;5.406;2023-04-15T04:33:15;101097.72;;;4.77;82.42
71735;BME280;59577;52.122;5.406;2023-04-15T04:35:43;101107.66;;;4.76;82.25
71735;BME280;59577;52.122;5.406;2023-04-15T04:38:09;101105.56;;;4.73;82.30
71735;BME280;59577;52.122;5.406;2023-04-15T04:40:39;101111.72;;;4.74;82.45
71735;BME280;59577;52.122;5.406;2023-04-15T04:43:05;101110.63;;;4.75;82.70
71735;BME280;59577;52.122;5.406;2023-04-15T04:45:32;101116.78;;;4.75;82.55
71735;BME280;59577;52.122;5.406;2023-04-15T04:47:58;101120.25;;;4.76;81.85
71735;BME280;59577;52.122;5.406;2023-04-15T04:50:26;101125.13;;;4.74;82.32
71735;BME280;59577;52.122;5.406;2023-04-15T04:52:57;101130.00;;;4.71;82.28
71735;BME280;59577;52.122;5.406;2023-04-15T04:55:27;101132.22;;;4.69;82.60
71735;BME280;59577;52.122;5.406;2023-04-15T04:57:54;101145.81;;;4.73;82.32
71735;BME280;59577;52.122;5.406;2023-04-15T05:00:21;101147.00;;;4.67;82.32
71735;BME280;59577;52.122;5.406;2023-04-15T05:02:51;101143.34;;;4.63;82.27
71735;BME280;59577;52.122;5.406;2023-04-15T05:05:21;101146.03;;;4.63;82.39
71735;BME280;59577;52.122;5.406;2023-04-15T05:07:50;101156.94;;;4.66;82.75
71735;BME280;59577;52.122;5.406;2023-04-15T05:10:16;101162.78;;;4.68;82.56
71735;BME280;59577;52.122;5.406;2023-04-15T05:12:43;101165.34;;;4.74;83.13
71735;BME280;59577;52.122;5.406;2023-04-15T05:15:10;101166.03;;;4.79;83.31
71735;BME280;59577;52.122;5.406;2023-04-15T05:17:36;101171.59;;;4.83;83.09
71735;BME280;59577;52.122;5.406;2023-04-15T05:20:04;101177.81;;;4.92;82.87
71735;BME280;59577;52.122;5.406;2023-04-15T05:22:30;101180.72;;;5.04;82.99
71735;BME280;59577;52.122;5.406;2023-04-15T05:24:57;101174.56;;;5.26;83.10
71735;BME280;59577;52.122;5.406;2023-04-15T05:27:24;101177.03;;;5.45;82.55
71735;BME280;59577;52.122;5.406;2023-04-15T05:30:10;101184.59;;;5.75;82.10
71735;BME280;59577;52.122;5.406;2023-04-15T05:32:41;101190.50;;;6.43;81.40
71735;BME280;59577;52.122;5.406;2023-04-15T05:35:08;101190.16;;;7.06;79.96
71735;BME280;59577;52.122;5.406;2023-04-15T05:37:35;101189.84;;;7.81;78.42
71735;BME280;59577;52.122;5.406;2023-04-15T05:40:01;101198.53;;;8.46;75.50
71735;BME280;59577;52.122;5.406;2023-04-15T05:42:28;101202.75;;;8.56;74.55
71735;BME280;59577;52.122;5.406;2023-04-15T05:44:54;101197.19;;;8.94;73.42
71735;BME280;59577;52.122;5.406;2023-04-15T05:47:21;101211.47;;;9.16;72.07
71735;BME280;59577;52.122;5.406;2023-04-15T05:49:47;101214.44;;;8.60;71.93
71735;BME280;59577;52.122;5.406;2023-04-15T05:52:17;101216.56;;;8.54;72.30
71735;BME280;59577;52.122;5.406;2023-04-15T05:54:44;101224.94;;;8.32;72.45
71735;BME280;59577;52.122;5.406;2023-04-15T05:57:11;101217.75;;;8.06;72.46
71735;BME280;59577;52.122;5.406;2023-04-15T05:59:37;101228.47;;;7.85;72.73
71735;BME280;59577;52.122;5.406;2023-04-15T06:02:04;101234.22;;;7.75;73.42
71735;BME280;59577;52.122;5.406;2023-04-15T06:04:31;101226.75;;;7.80;73.32
71735;BME280;59577;52.122;5.406;2023-04-15T06:06:58;101235.34;;;7.74;73.49
71735;BME280;59577;52.122;5.406;2023-04-15T06:09:25;101233.59;;;7.78;74.13
71735;BME280;59577;52.122;5.406;2023-04-15T06:11:52;101240.28;;;8.10;74.54
71735;BME280;59577;52.122;5.406;2023-04-15T06:14:20;101245.78;;;8.52;73.70
71735;BME280;59577;52.122;5.406;2023-04-15T06:16:47;101256.91;;;8.72;72.90
71735;BME280;59577;52.122;5.406;2023-04-15T06:19:13;101258.56;;;9.06;72.38
71735;BME280;59577;52.122;5.406;2023-04-15T06:21:41;101259.16;;;9.91;71.44
71735;BME280;59577;52.122;5.406;2023-04-15T06:24:07;101260.78;;;10.94;69.10
71735;BME280;59577;52.122;5.406;2023-04-15T06:26:34;101262.28;;;11.80;66.47
71735;BME280;59577;52.122;5.406;2023-04-15T06:29:03;101264.59;;;12.10;65.08
71735;BME280;59577;52.122;5.406;2023-04-15T06:31:30;101267.72;;;13.38;62.38
71735;BME280;59577;52.122;5.406;2023-04-15T06:33:57;101275.66;;;13.46;60.84
71735;BME280;59577;52.122;5.406;2023-04-15T06:36:23;101279.44;;;13.03;60.75
71735;BME280;59577;52.122;5.406;2023-04-15T06:38:50;101280.03;;;13.12;61.39
71735;BME280;59577;52.122;5.406;2023-04-15T06:41:16;101285.47;;;13.12;60.02
71735;BME280;59577;52.122;5.406;2023-04-15T06:43:43;101283.03;;;13.07;60.29
71735;BME280;59577;52.122;5.406;2023-04-15T06:46:10;101294.34;;;12.73;61.05
71735;BME280;59577;52.122;5.406;2023-04-15T06:48:37;101289.63;;;12.19;61.86
71735;BME280;59577;52.122;5.406;2023-04-15T06:51:03;101306.13;;;11.82;62.45
71735;BME280;59577;52.122;5.406;2023-04-15T06:53:30;101307.94;;;11.78;63.17
71735;BME280;59577;52.122;5.406;2023-04-15T06:55:56;101318.41;;;11.47;63.83
71735;BME280;59577;52.122;5.406;2023-04-15T06:58:38;101312.38;;;11.98;64.26
71735;BME280;59577;52.122;5.406;2023-04-15T07:01:05;101326.22;;;12.41;63.07
71735;BME280;59577;52.122;5.406;2023-04-15T07:03:32;101317.91;;;12.34;62.71
71735;BME280;59577;52.122;5.406;2023-04-15T07:06:01;101333.19;;;12.74;62.39
71735;BME280;59577;52.122;5.406;2023-04-15T07:08:32;101329.03;;;12.80;61.88
71735;BME280;59577;52.122;5.406;2023-04-15T07:10:59;101333.66;;;12.44;62.65
71735;BME280;59577;52.122;5.406;2023-04-15T07:13:29;101340.34;;;12.82;63.20
71735;BME280;59577;52.122;5.406;2023-04-15T07:15:56;101344.56;;;14.20;60.89
71735;BME280;59577;52.122;5.406;2023-04-15T07:18:22;101345.16;;;15.13;58.01
71735;BME280;59577;52.122;5.406;2023-04-15T07:21:03;101352.75;;;15.27;56.87
71735;BME280;59577;52.122;5.406;2023-04-15T07:23:29;101359.31;;;15.56;57.33
71735;BME280;59577;52.122;5.406;2023-04-15T07:26:03;101362.38;;;16.29;55.43
71735;BME280;59577;52.122;5.406;2023-04-15T07:28:29;101360.91;;;16.39;54.18
71735;BME280;59577;52.122;5.406;2023-04-15T07:30:56;101359.06;;;17.17;54.62
71735;BME280;59577;52.122;5.406;2023-04-15T07:33:23;101358.91;;;17.97;51.49
71735;BME280;59577;52.122;5.406;2023-04-15T07:35:50;101368.72;;;18.41;51.72
71735;BME280;59577;52.122;5.406;2023-04-15T07:38:16;101370.06;;;19.43;49.59
71735;BME280;59577;52.122;5.406;2023-04-15T07:40:45;101377.56;;;20.51;46.07
71735;BME280;59577;52.122;5.406;2023-04-15T07:43:25;101368.78;;;21.05;46.22
71735;BME280;59577;52.122;5.406;2023-04-15T07:45:52;101371.25;;;21.88;44.48
71735;BME280;59577;52.122;5.406;2023-04-15T07:48:18;101374.72;;;22.67;40.32
71735;BME280;59577;52.122;5.406;2023-04-15T07:50:47;101373.66;;;22.81;38.85
71735;BME280;59577;52.122;5.406;2023-04-15T07:53:13;101378.03;;;22.07;38.76
71735;BME280;59577;52.122;5.406;2023-04-15T07:55:40;101375.63;;;22.80;39.55
71735;BME280;59577;52.122;5.406;2023-04-15T07:58:07;101381.94;;;23.01;38.51
71735;BME280;59577;52.122;5.406;2023-04-15T08:00:33;101385.75;;;22.87;39.02
71735;BME280;59577;52.122;5.406;2023-04-15T08:03:00;101387.88;;;22.36;37.10
71735;BME280;59577;52.122;5.406;2023-04-15T08:05:33;101398.53;;;22.33;37.11
71735;BME280;59577;52.122;5.406;2023-04-15T08:08:00;101389.78;;;22.62;38.44
71735;BME280;59577;52.122;5.406;2023-04-15T08:10:28;101402.72;;;22.65;38.28
71735;BME280;59577;52.122;5.406;2023-04-15T08:13:07;101401.16;;;22.64;37.26
71735;BME280;59577;52.122;5.406;2023-04-15T08:15:34;101401.00;;;22.01;36.79
71735;BME280;59577;52.122;5.406;2023-04-15T08:18:01;101406.53;;;21.39;36.94
71735;BME280;59577;52.122;5.406;2023-04-15T08:20:27;101412.56;;;20.51;38.56
71735;BME280;59577;52.122;5.406;2023-04-15T08:22:54;101420.66;;;20.20;39.79
71735;BME280;59577;52.122;5.406;2023-04-15T08:25:27;101413.16;;;19.53;39.96
71735;BME280;59577;52.122;5.406;2023-04-15T08:27:55;101418.19;;;19.69;40.30
71735;BME280;59577;52.122;5.406;2023-04-15T08:30:23;101419.88;;;20.19;40.80
71735;BME280;59577;52.122;5.406;2023-04-15T08:32:50;101421.53;;;21.00;40.74
71735;BME280;59577;52.122;5.406;2023-04-15T08:35:16;101423.22;;;21.25;39.72
71735;BME280;59577;52.122;5.406;2023-04-15T08:37:43;101427.09;;;21.31;40.65
71735;BME280;59577;52.122;5.406;2023-04-15T08:40:10;101430.06;;;21.09;38.53
71735;BME280;59577;52.122;5.406;2023-04-15T08:42:42;101441.97;;;21.02;39.24
71735;BME280;59577;52.122;5.406;2023-04-15T08:45:10;101432.31;;;20.31;38.44
71735;BME280;59577;52.122;5.406;2023-04-15T08:47:41;101441.44;;;19.36;40.05
71735;BME280;59577;52.122;5.406;2023-04-15T08:50:23;101450.38;;;19.62;42.19
71735;BME280;59577;52.122;5.406;2023-04-15T08:52:54;101453.63;;;19.31;41.37
71735;BME280;59577;52.122;5.406;2023-04-15T08:55:21;101455.66;;;18.77;41.54
71735;BME280;59577;52.122;5.406;2023-04-15T08:57:53;101463.41;;;17.99;42.14
71735;BME280;59577;52.122;5.406;2023-04-15T09:00:19;101476.84;;;17.45;43.67
71735;BME280;59577;52.122;5.406;2023-04-15T09:02:46;101471.66;;;18.07;44.75
71735;BME280;59577;52.122;5.406;2023-04-15T09:05:13;101473.66;;;18.49;44.25
71735;BME280;59577;52.122;5.406;2023-04-15T09:07:39;101476.41;;;18.60;43.27
71735;BME280;59577;52.122;5.406;2023-04-15T09:10:07;101483.84;;;18.38;44.15
71735;BME280;59577;52.122;5.406;2023-04-15T09:12:34;101484.66;;;18.71;44.74
71735;BME280;59577;52.122;5.406;2023-04-15T09:15:02;101485.38;;;19.29;43.88
71735;BME280;59577;52.122;5.406;2023-04-15T09:17:32;101495.22;;;19.05;42.28
71735;BME280;59577;52.122;5.406;2023-04-15T09:20:09;101496.41;;;18.89;43.70
71735;BME280;59577;52.122;5.406;2023-04-15T09:22:36;101499.56;;;19.02;43.10
71735;BME280;59577;52.122;5.406;2023-04-15T09:25:03;101501.50;;;18.80;44.13
71735;BME280;59577;52.122;5.406;2023-04-15T09:27:47;101507.38;;;19.11;44.18
71735;BME280;59577;52.122;5.406;2023-04-15T09:30:13;101507.75;;;19.24;43.17
71735;BME280;59577;52.122;5.406;2023-04-15T09:32:52;101519.50;;;18.59;42.94
71735;BME280;59577;52.122;5.406;2023-04-15T09:35:21;101518.25;;;18.17;44.12
71735;BME280;59577;52.122;5.406;2023-04-15T09:38:04;101521.41;;;18.30;43.94
71735;BME280;59577;52.122;5.406;2023-04-15T09:40:51;101518.25;;;18.14;43.95
71735;BME280;59577;52.122;5.406;2023-04-15T09:43:18;101509.50;;;17.83;44.26
71735;BME280;59577;52.122;5.406;2023-04-15T09:45:50;101525.22;;;17.90;46.27
71735;BME280;59577;52.122;5.406;2023-04-15T09:48:25;101518.66;;;18.27;45.36
71735;BME280;59577;52.122;5.406;2023-04-15T09:50:56;101531.97;;;18.17;44.94
71735;BME280;59577;52.122;5.406;2023-04-15T09:53:24;101524.13;;;18.16;46.14
71735;BME280;59577;52.122;5.406;2023-04-15T09:55:53;101536.72;;;18.56;44.10
71735;BME280;59577;52.122;5.406;2023-04-15T09:58:33;101531.13;;;18.02;44.38
71735;BME280;59577;52.122;5.406;2023-04-15T10:01:03;101532.53;;;17.71;45.04
71735;BME280;59577;52.122;5.406;2023-04-15T10:03:32;101529.81;;;17.78;44.51
71735;BME280;59577;52.122;5.406;2023-04-15T10:06:00;101530.69;;;17.93;45.98
71735;BME280;59577;52.122;5.406;2023-04-15T10:08:29;101540.56;;;18.16;46.40
71735;BME280;59577;52.122;5.406;2023-04-15T10:11:02;101538.31;;;18.65;46.42
71735;BME280;59577;52.122;5.406;2023-04-15T10:13:30;101553.63;;;18.91;46.04
71735;BME280;59577;52.122;5.406;2023-04-15T10:16:13;101551.63;;;18.66;43.44
71735;BME280;59577;52.122;5.406;2023-04-15T10:18:43;101547.50;;;17.92;45.29
71735;BME280;59577;52.122;5.406;2023-04-15T10:21:18;101541.03;;;18.47;44.25
71735;BME280;59577;52.122;5.406;2023-04-15T10:23:45;101552.28;;;18.09;44.76
71735;BME280;59577;52.122;5.406;2023-04-15T10:26:12;101546.38;;;18.00;44.59
71735;BME280;59577;52.122;5.406;2023-04-15T10:28:40;101547.19;;;18.11;44.92
71735;BME280;59577;52.122;5.406;2023-04-15T10:31:16;101543.91;;;17.80;47.13
71735;BME280;59577;52.122;5.406;2023-04-15T10:33:44;101546.84;;;18.27;45.22
71735;BME280;59577;52.122;5.406;2023-04-15T10:36:13;101550.38;;;18.20;46.48
71735;BME280;59577;52.122;5.406;2023-04-15T10:38:44;101555.56;;;18.72;46.03
71735;BME280;59577;52.122;5.406;2023-04-15T10:41:21;101557.56;;;19.01;46.71
71735;BME280;59577;52.122;5.406;2023-04-15T10:46:53;101565.34;;;18.59;45.89
71735;BME280;59577;52.122;5.406;2023-04-15T10:49:24;101562.16;;;18.42;46.57
71735;BME280;59577;52.122;5.406;2023-04-15T10:51:54;101576.28;;;18.48;46.08
71735;BME280;59577;52.122;5.406;2023-04-15T11:02:54;101590.66;;;18.16;46.54
71735;BME280;59577;52.122;5.406;2023-04-15T11:08:09;101586.03;;;18.28;45.23
71735;BME280;59577;52.122;5.406;2023-04-15T11:15:40;101582.63;;;18.81;46.50
71735;BME280;59577;52.122;5.406;2023-04-15T11:20:38;101584.16;;;18.60;43.36
71735;BME280;59577;52.122;5.406;2023-04-15T11:23:07;101590.69;;;18.23;44.84
71735;BME280;59577;52.122;5.406;2023-04-15T11:25:41;101590.41;;;18.50;44.69
71735;BME280;59577;52.122;5.406;2023-04-15T11:28:09;101581.47;;;18.93;45.90
71735;BME280;59577;52.122;5.406;2023-04-15T11:30:37;101595.59;;;19.45;44.13
71735;BME280;59577;52.122;5.406;2023-04-15T11:33:16;101591.28;;;19.12;44.95
71735;BME280;59577;52.122;5.406;2023-04-15T11:35:43;101594.81;;;19.12;46.28
71735;BME280;59577;52.122;5.406;2023-04-15T11:38:14;101598.72;;;19.15;45.17
71735;BME280;59577;52.122;5.406;2023-04-15T11:40:42;101596.78;;;19.26;45.46
71735;BME280;59577;52.122;5.406;2023-04-15T11:43:14;101588.84;;;19.82;45.37
71735;BME280;59577;52.122;5.406;2023-04-15T11:45:55;101593.28;;;20.46;44.52
71735;BME280;59577;52.122;5.406;2023-04-15T11:48:26;101597.72;;;20.26;42.60
71735;BME280;59577;52.122;5.406;2023-04-15T11:50:54;101600.63;;;19.83;45.02
71735;BME280;59577;52.122;5.406;2023-04-15T11:53:22;101602.25;;;19.44;45.02
71735;BME280;59577;52.122;5.406;2023-04-15T11:55:51;101607.31;;;19.60;45.28
71735;BME280;59577;52.122;5.406;2023-04-15T11:58:20;101605.34;;;19.75;44.81
71735;BME280;59577;52.122;5.406;2023-04-15T12:00:53;101612.31;;;20.08;45.47
71735;BME280;59577;52.122;5.406;2023-04-15T12:03:23;101618.50;;;20.31;44.87
71735;BME280;59577;52.122;5.406;2023-04-15T12:06:31;101617.72;;;20.34;44.49
71735;BME280;59577;52.122;5.406;2023-04-15T12:11:36;101633.56;;;19.97;44.17
71735;BME280;59577;52.122;5.406;2023-04-15T12:14:09;101637.88;;;19.95;44.16
71735;BME280;59577;52.122;5.406;2023-04-15T12:16:39;101642.59;;;19.90;43.85
71735;BME280;59577;52.122;5.406;2023-04-15T12:19:23;101651.66;;;19.77;44.02
71735;BME280;59577;52.122;5.406;2023-04-15T12:21:56;101639.88;;;19.87;44.18
71735;BME280;59577;52.122;5.406;2023-04-15T12:24:25;101645.38;;;19.58;43.58
71735;BME280;59577;52.122;5.406;2023-04-15T12:26:56;101643.00;;;19.64;44.54
71735;BME280;59577;52.122;5.406;2023-04-15T12:29:29;101646.09;;;20.09;44.84
71735;BME280;59577;52.122;5.406;2023-04-15T12:31:58;101648.09;;;19.98;43.97
71735;BME280;59577;52.122;5.406;2023-04-15T12:34:34;101647.31;;;19.90;45.52
71735;BME280;59577;52.122;5.406;2023-04-15T12:37:16;101660.66;;;19.84;45.74
71735;BME280;59577;52.122;5.406;2023-04-15T12:39:52;101654.34;;;19.98;44.80
71735;BME280;59577;52.122;5.406;2023-04-15T12:42:19;101668.91;;;19.30;43.73
71735;BME280;59577;52.122;5.406;2023-04-15T12:45:01;101665.69;;;18.82;45.69
71735;BME280;59577;52.122;5.406;2023-04-15T12:47:28;101665.34;;;18.90;46.98
71735;BME280;59577;52.122;5.406;2023-04-15T12:49:54;101675.06;;;18.80;45.00
71735;BME280;59577;52.122;5.406;2023-04-15T12:52:21;101680.47;;;18.48;45.96
71735;BME280;59577;52.122;5.406;2023-04-15T12:54:48;101685.75;;;18.09;46.54
71735;BME280;59577;52.122;5.406;2023-04-15T12:57:14;101681.66;;;17.84;47.61
71735;BME280;59577;52.122;5.406;2023-04-15T12:59:44;101692.00;;;18.09;47.58
71735;BME280;59577;52.122;5.406;2023-04-15T13:02:10;101698.72;;;18.19;46.22
71735;BME280;59577;52.122;5.406;2023-04-15T13:04:55;101695.72;;;18.46;46.21
71735;BME280;59577;52.122;5.406;2023-04-15T13:07:22;101702.88;;;18.75;46.21
71735;BME280;59577;52.122;5.406;2023-04-15T13:09:48;101704.03;;;18.64;46.55
71735;BME280;59577;52.122;5.406;2023-04-15T13:12:15;101703.94;;;18.46;46.66
71735;BME280;59577;52.122;5.406;2023-04-15T13:14:41;101704.88;;;17.98;46.93
71735;BME280;59577;52.122;5.406;2023-04-15T13:17:08;101720.44;;;17.87;47.44
71735;BME280;59577;52.122;5.406;2023-04-15T13:19:37;101712.72;;;17.55;47.10
71735;BME280;59577;52.122;5.406;2023-04-15T13:22:04;101721.59;;;17.03;48.67
71735;BME280;59577;52.122;5.406;2023-04-15T13:24:31;101723.81;;;16.90;48.93
71735;BME280;59577;52.122;5.406;2023-04-15T13:26:57;101719.09;;;16.87;49.05
71735;BME280;59577;52.122;5.406;2023-04-15T13:29:24;101716.63;;;16.79;49.76